Little Rock, AR (72216)

9:09 PM CDT on July 31, 2015 (GMT -0500)
Central Business Equipment | | Change Station
CLOSE
Current Station
Personal Weather Station
Location: Sherwood, AR
Elevation: 288 ft
Nearby Weather Stations

Elev 288 ft 34.82 °N, 92.20 °W | Updated 1 second ago

Clear
Clear
81.7 °F
Feels Like 86 °F
N
0.0
Wind Variable Wind from South
Gusts 0.0 mph

Today
High -- | Low -- °F
--% Chance of Precip.
Yesterday
High -- | Low -- °F
Precip. -- in
6:17 AM 8:12 PM
Waxing Gibbous, 99% visible
Pressure 30.04 in
Visibility 10.0 miles
Clouds Scattered Clouds 25000 ft
Heat Index 86 °F
Dew Point 72 °F
Humidity 72%
Rainfall 0.00 in
Snow Depth Not available.
UV 0 out of 12
Pollen 4.90 out of 12
Air Quality Not available.
Flu Activity Not available.
METAR KLIT 010153Z 10003KT 10SM SCT250 28/19 A3004 RMK AO2 SLP170 T02830189

More Conditions Fewer Conditions

Pressure 30.04 in
Visibility 10.0 miles
Clouds Scattered Clouds 25000 ft
Heat Index 86 °F
Dew Point 72 °F
Humidity 72%
Rainfall 0.00 in
Snow Depth Not available.
UV 0 out of 12
Pollen 4.90 out of 12
Air Quality Not available.
Flu Activity Not available.
METAR KLIT 010153Z 10003KT 10SM SCT250 28/19 A3004 RMK AO2 SLP170 T02830189

More Conditions Fewer Conditions

10-Day Weather Forecast

×

Almanac

Astronomy

Jul. 31, 2015 Rise Set
Actual Time
Civil Twilight
Nautical Twilight
Astronomical Twilight
Moon
Length of Visible Light
Length of Day
Tomorrow will be .
, % of the Moon is Illuminated

Today's Extremes

State Highs State Lows

Community

WunderPhotos

Upload Photos

1,842,801 photos uploaded!

WunderBlogs® & News

Nearby

Air Quality

  Air Quality AQ Index Pollutant
Not available.

Snow Depth

Station Depth Elevation

Earthquake Activity

City Distance Mag. Time & Date
Minimum magnitude displayed is 2.5.

Coastal Water Temperatures

Place Temperature

Stations

Nearby Weather Stations

Station Location Temp. Windchill Dew Point Humidity Wind Precip. Elev Updated Type